Pagina principale
METAR-TAF:

METAR-TAF

Aeroporti :

Aeroporto di Portorose

Portorose, Slovenia

latitudine: 45-31N, longitudine: 013-34E, altezza: 95 m

Osservazione

Il bollettino è stato emesso 30 minuti fa, alle 12:30 UTC
Vento calmo
Temperature 11°C
Umidità 66%
Pressione 1023 hPa
Visibilità 10 km o più
Nuvoloso ad un'altezza di 3000 ft

METAR: LJPZ 061230Z 00000KT 9999 BKN030 11/05 Q1023

Ora: 14:00 (13:00 UTC)

Previsione

Il bollettino è stato emesso 2 ore e 0 minuti fa, alle 11:00 UTC
Previsione valida dal 06 alle 12 UTC al 06 alle 21 UTC
Vento 5 kt da est/sud-est
Visibilità 10 km o più
Nuvoloso ad un'altezza di 3300 ft
Probabilità 40% :
Temporaneamente
dal 06 alle 12 UTC al 06 alle 16 UTC
Vento 4 kt da ovest/sud-ovest

TAF: LJPZ 061100Z 0612/0621 12005KT 9999 BKN033 PROB40 TEMPO 0612/0616 24004KT

Osservazioni e previsioni meteorologiche di più di 4000 aeroporti (messaggi METAR e TAF).

Le stazioni disponibili sono rappresentate dai dischi gialli e rossi sulla carta.

Puntare il mouse per vedere il nome della stazione.

Clicca sopra per visualizzare le osservazioni e previsioni meteorologiche.

Per cambiare la mappa : fare clic sui pulsanti verdi con una croce nera per ingrandire, il pulsante verde con un trattino per diminuire, o sulla freccia verde per le mappe adiacenti.


METAR-TAF: